Flight Track Log - Related Links

Times and Time Zones

All times are in EDT time to prevent confusion due to time zone crossing. See the UAL4422 flight status page for this flight to view local times or setup timezone preferences in your user account.

Time Position Orientation Groundspeed Altitude Reporting Facility
EDT Latitude Longitude Course Direction KTS MPH feet Rate Location/Type
Sat 04:31:00 PM 30.0361 -95.8335 276° West  Level FlightAware Approximate
Sat 04:32:00 PM 30.0466 -95.9593 276° West  Level FlightAware Approximate
Sat 04:33:00 PM 30.0696 -96.0817 276° West  Level FlightAware Approximate
Sat 04:34:00 PM 30.0810 -96.2075 276° West  Level FlightAware Approximate
Sat 04:35:00 PM 30.1035 -96.3246 279° West  Level FlightAware Approximate
Sat 04:36:00 PM 30.1214 -96.4494 279° West  Level FlightAware Approximate
Sat 04:37:00 PM 30.1396 -96.5741 280° West  Level FlightAware Approximate
Sat 04:38:00 PM 30.1588 -96.6986 280° West  Level FlightAware Approximate
Sat 04:39:00 PM 30.1812 -96.8225 283° West  Level FlightAware Approximate
Sat 04:40:00 PM 30.2000 -96.9465 270° West  Level FlightAware Approximate
Sat 04:41:00 PM 30.2171 -97.0695 280° West  Level FlightAware Approximate
Sat 04:42:00 PM 30.2363 -97.1941 280° West  Level FlightAware Approximate
Sat 04:43:00 PM 30.2559 -97.3187 281° West  Level FlightAware Approximate
Sat 04:44:00 PM 30.2722 -97.4439 276° West  Level FlightAware Approximate
Sat 04:45:00 PM 30.2838 -97.5698 280° West  Level FlightAware Approximate
Sat 04:46:00 PM 30.3036 -97.6944 280° West  Level FlightAware Approximate
Sat 04:47:00 PM 30.3232 -97.8191 280° West  Level FlightAware Approximate
Sat 04:48:00 PM 30.3410 -97.9441 278° West  Level FlightAware Approximate
Sat 04:49:00 PM 30.3584 -98.0693 280° West  Level FlightAware Approximate
Sat 04:50:00 PM 30.3781 -98.1940 280° West  Level FlightAware Approximate
Sat 04:51:00 PM 30.3977 -98.3187 280° West  Level FlightAware Approximate
Sat 04:52:00 PM 30.4149 -98.4440 279° West  Level FlightAware Approximate
Sat 04:53:00 PM 30.4317 -98.5694 279° West  Level FlightAware Approximate
Sat 04:54:00 PM 30.4484 -98.6948 279° West  Level FlightAware Approximate
Sat 04:55:00 PM 30.4649 -98.8202 279° West  Level FlightAware Approximate
Sat 04:56:00 PM 30.4813 -98.9457 279° West  Level FlightAware Approximate
Sat 04:57:00 PM 30.4976 -99.0712 279° West  Level FlightAware Approximate
Sat 04:58:00 PM 30.5138 -99.1968 279° West  Level FlightAware Approximate
Sat 04:59:00 PM 30.5298 -99.3224 278° West  Level FlightAware Approximate
Sat 05:00:00 PM 30.5440 -99.4484 277° West  Level FlightAware Approximate
Sat 05:01:00 PM 30.5576 -99.5744 277° West  Level FlightAware Approximate
Sat 05:02:00 PM 30.5711 -99.7005 277° West  Level FlightAware Approximate
Sat 05:03:00 PM 30.5906 -99.8222 327° Northwest  Level FlightAware Approximate
Sat 05:04:00 PM 30.6821 -99.8917 327° Northwest  Level FlightAware Approximate
Sat 05:05:00 PM 30.7737 -99.9614 327° Northwest  Level FlightAware Approximate
Sat 05:06:00 PM 30.8652 -100.0312 327° Northwest  Level FlightAware Approximate
Sat 05:07:00 PM 30.9564 -100.1017 326° Northwest  Level FlightAware Approximate
Sat 05:08:00 PM 31.0466 -100.1738 326° Northwest  Level FlightAware Approximate
Sat 05:09:00 PM 31.1368 -100.2460 326° Northwest  Level FlightAware Approximate
Sat 05:10:00 PM 31.2159 -100.3244 327° Northwest  Level FlightAware Approximate
Sat 05:11:00 PM 31.3056 -100.3976 324° Northwest  Level FlightAware Approximate
Sat 05:12:00 PM 31.3837 -100.4841 300° West  Level FlightAware Approximate
Sat 05:13:00 PM 31.4245 -100.6024 289° West  Level FlightAware Approximate
Sat 05:14:00 PM 31.4727 -100.7169 293° West  Level FlightAware Approximate
Sat 05:15:00 PM 31.5146 -100.8354 293° West  Level FlightAware Approximate
Sat 05:16:00 PM 31.5564 -100.9541 292° West  Level FlightAware Approximate
Sat 05:17:00 PM 31.5991 -101.0723 293° West  Level FlightAware Approximate
Sat 05:18:00 PM 31.6421 -101.1904 293° West  Level FlightAware Approximate
Sat 05:19:00 PM 31.6850 -101.3086 293° West  Level FlightAware Approximate
Sat 05:20:00 PM 31.7260 -101.4278 291° West  Level FlightAware Approximate
Sat 05:21:00 PM 31.7759 -101.5420 293° West  Level FlightAware Approximate
Sat 05:22:00 PM 31.8189 -101.6603 293° West  Level FlightAware Approximate
Sat 05:23:00 PM 31.8616 -101.7789 293° West  Level FlightAware Approximate
Sat 05:24:00 PM 31.9040 -101.8977 293° West  Level FlightAware Approximate
Sat 05:25:00 PM 31.9422 -102.0184 290° West  Level FlightAware Approximate
Sat 05:26:00 PM 31.9849 -102.1365 301° West  Level FlightAware Approximate
Sat 05:27:00 PM 31.9363 -102.1990 196° South  Level FlightAware Approximate
Sat 05:28:00 PM 31.9333 -102.2000 196° South  Level FlightAware Approximate
Sat 05:29:00 PM 31.9425 -102.2019 196° South  Level Estimated
Sat 05:30:00 PM 31.9425 -102.2019 196° South  Level Estimated
Sat 05:31:00 PM 31.9425 -102.2019 196° South  Level Estimated
Sat 05:32:00 PM 31.9425 -102.2019 196° South  Level Estimated
Sat 05:33:00 PM 31.9425 -102.2019 196° South  Level Estimated

Login

Don't have an account? Register now (free) for customized features, flight alerts, and more!